Tiempo atmosférico en la estación meteorológica de Orihuela, Alacant/Alicante (26 m.)



Fecha
DESCASC
Temp. máxima en grados centígrados (hora)
DESCASC
Temp. mínima en grados centígrados (hora)
DESCASC
Temp. media en grados centígrados
DESCASC
Racha de viento máxima en m/sg (hora)
DESCASC
Velocidad máxima media en intervalos de 10 minutos(hora)
DESCASC
Precipitaciones diarias en mm
DESCASC
Precipitaciones de 00:00 a 06:00 en mm
DESCASC
Precipitaciones de 06:00 a 12:00 en mm
DESCASC
Precipitaciones de 12:00 a 18:00 en mm
DESCASC
Precipitaciones de 18:00 a 24:00 en mm
DESCASC
23-06-2019 29.9 (15:50) 16.3 (06:50) 23.1 9.17 (14:30) 5.28 (17:10) 0 0 0 0 0
22-06-2019 28.8 (13:10) 18.2 (07:10) 23.5 10.56 (14:40) 5.28 (13:40) 0 0 0 0 0
21-06-2019 30.6 (15:20) 19.2 (06:00) 24.9 8.89 (17:30) 5 (16:00) 0 0 0 0 0
20-06-2019 29.7 (12:10) 18.5 (00:00) 24.1 10 (14:40) 5.56 (14:20) 0 0 0 0 0
19-06-2019 35.4 (16:10) 18.5 (00:00) 27 7.22 (17:50) 3.61 (22:10) 0 0 0 0 0
18-06-2019 31.1 (15:20) 14.7 (00:00) 22.9 9.17 (16:00) 4.72 (16:20) 0 0 0 0 0
17-06-2019 32.4 (15:50) 14.1 (00:00) 23.3 11.39 (16:00) 4.44 (18:50) 0 0 0 0 0
16-06-2019 26 (14:10) 14.7 (00:00) 20.3 9.17 (15:00) 5.28 (15:00) 0 0 0 0 0
15-06-2019 32.1 (16:00) 18.2 (00:00) 25.1 7.5 (17:30) 3.61 (17:40) 0 0 0 0 0
14-06-2019 31.3 (16:40) 19.2 (00:00) 25.3 8.06 (16:30) 3.33 (01:10) 1.4 0 1.4 0 0
13-06-2019 25.8 (14:50) 19.3 (00:00) 22.5 12.5 (16:00) 6.11 (15:40) 0 0 0 0 0
12-06-2019 24.8 (15:50) 14.9 (00:00) 19.8 10.28 (18:00) 5.28 (17:30) 0 0 0 0 0
11-06-2019 27.5 (13:10) 16 (00:00) 21.8 12.5 (19:20) 6.94 (19:30) 0 0 0 0 0
10-06-2019 30.4 (13:00) 18.2 (00:00) 24.3 10 (17:30) 5.56 (17:20) 0 0 0 0 0
09-06-2019 31 (17:30) 18.5 (00:00) 24.8 6.39 (17:40) 3.33 (06:20) 0 0 0 0 0
08-06-2019 25.9 (13:30) 15.9 (00:00) 20.9 13.33 (15:00) 7.5 (13:40) 0 0 0 0 0
07-06-2019 31.6 (15:30) 15.5 (00:00) 23.6 11.39 (10:50) 5 (10:50) 0 0 0 0 0
06-06-2019 26.9 (13:30) 12.5 (00:00) 19.7 9.44 (15:00) 5.28 (15:00) 0 0 0 0 0
05-06-2019 29.8 (18:00) 16.2 (00:00) 23 13.33 (15:10) 6.67 (11:20) 0 0 0 0 0
04-06-2019 32.7 (16:00) 16.6 (00:00) 24.7 6.94 (16:10) 3.61 (17:30) 0 0 0 0 0
03-06-2019 30.2 (16:20) 13.2 (00:00) 21.7 7.5 (15:50) 4.72 (18:00) 0 0 0 0 0
02-06-2019 29.3 (14:30) 11.6 (00:00) 20.4 7.5 (17:10) 4.17 (14:50) 0 0 0 0 0
01-06-2019 27.6 (16:20) 12.1 (00:00) 19.9 8.61 (16:50) 4.44 (16:50) 0 0 0 0 0
31-05-2019 26 (15:00) 12.5 (00:00) 19.3 8.33 (14:10) 4.44 (17:10) 0 0 0 0 0
30-05-2019 25.7 (15:10) 12.4 (00:00) 19.1 8.06 (15:50) 4.17 (16:10) 0 0 0 0 0
29-05-2019 23.2 (14:50) 13.9 (00:00) 18.6 9.17 (14:40) 5.28 (15:20) 0 0 0 0 0
28-05-2019 26.1 (12:40) 17.5 (00:00) 21.8 8.89 (17:10) 4.72 (18:20) 0 0 0 0 0
27-05-2019 31.3 (16:10) 14.8 (00:00) 23 8.61 (16:40) 4.44 (16:30) 0 0 0 0 0
26-05-2019 27.9 (16:10) 13 (00:00) 20.4 8.89 (16:20) 3.61 (16:40) 0 0 0 0 0
25-05-2019 23.8 (18:40) 13.7 (00:00) 18.7 8.33 (15:40) 5 (14:50) 0 0 0 0 0

Gráficas

Temp. máximas Temp. mínimas Temp. medias Precipitaciones Rachas de viento máximas Velocidades máximas media en intervalos de 10 minutos

Datos horarios

Fecha y hora oficial Temperatura (ºC) Velocidad del viento (km/h) Dirección del viento Racha (km/h) Dirección de racha Precipitación (mm) Presión (hPa) Tendencia (hPa) Humedad (%)
2019-06-23 23:00:00 22.7 5 Este 10 Este 0 -- -- 69
2019-06-23 22:00:00 23.4 6 Este 22 Este 0 -- -- 68
2019-06-23 21:00:00 24.7 14 Este 28 Este 0 -- -- 62
2019-06-23 20:00:00 26.4 15 Este 32 Este 0 -- -- 45
2019-06-23 19:00:00 28 17 Este 31 Nordeste 0 -- -- 40
2019-06-23 18:00:00 29 18 Este 31 Este 0 -- -- 38
2019-06-23 17:00:00 29.4 18 Este 32 Este 0 -- -- 36
2019-06-23 16:00:00 29.7 18 Este 30 Este 0 -- -- 39
2019-06-23 15:00:00 29.2 15 Este 33 Este 0 -- -- 39
2019-06-23 14:00:00 29.1 15 Nordeste 32 Este 0 -- -- 44
2019-06-23 13:00:00 28.1 13 Este 24 Nordeste 0 -- -- 47
2019-06-23 12:00:00 27.3 13 Este 23 Nordeste 0 -- -- 51
2019-06-23 11:00:00 25.9 9 Este 17 Nordeste 0 -- -- 53
2019-06-23 10:00:00 23.9 7 Nordeste 12 Nordeste 0 -- -- 66
2019-06-23 09:00:00 21.4 0 Calma 9 Oeste 0 -- -- 71
2019-06-23 08:00:00 18.4 0 Calma 3 Sudoeste 0 -- -- 87
2019-06-23 07:00:00 16.4 0 Calma 2 Sudoeste 0 -- -- 89
2019-06-23 06:00:00 17.1 0 Calma 4 Oeste 0 -- -- 88
2019-06-23 05:00:00 18.5 3 Sudoeste 6 Sudoeste 0 -- -- 86
2019-06-23 04:00:00 19.1 2 Sur 7 Sudoeste 0 -- -- 84
2019-06-23 03:00:00 18.5 0 Calma 2 Sudoeste 0 -- -- 86
2019-06-23 02:00:00 19.5 0 Calma 2 Noroeste 0 -- -- 86
2019-06-23 01:00:00 20.1 0 Calma 3 Sudeste 0 -- -- 84
2019-06-23 00:00:00 21.6 3 Este 8 Este 0 -- -- 80
2019-06-22 23:00:00 21.9 4 Este 10 Este 0 -- -- 77
2019-06-22 22:00:00 23 5 Este 15 Este 0 -- -- 72
2019-06-22 21:00:00 24.2 9 Este 23 Este 0 -- -- 67
2019-06-22 20:00:00 25.9 11 Este 28 Nordeste 0 -- -- 60
2019-06-22 19:00:00 27.1 13 Este 29 Este 0 -- -- 53
2019-06-22 18:00:00 28.1 13 Este 29 Nordeste 0 -- -- 51
2019-06-22 17:00:00 28.7 15 Nordeste 30 Nordeste 0 -- -- 47
2019-06-22 16:00:00 28.5 14 Nordeste 29 Nordeste 0 -- -- 44
2019-06-22 15:00:00 28 15 Este 38 Nordeste 0 -- -- 50
2019-06-22 14:00:00 27.9 15 Este 32 Sudeste 0 -- -- 55
2019-06-22 13:00:00 28.4 16 Este 27 Este 0 -- -- 52
2019-06-22 12:00:00 28.1 6 Este 16 Nordeste 0 -- -- 51
2019-06-22 11:00:00 26.3 3 Sur 10 Sudoeste 0 -- -- 58
2019-06-22 10:00:00 23.9 4 Sudoeste 10 Sudoeste 0 -- -- 68
2019-06-22 09:00:00 21.9 5 Sudoeste 10 Sudoeste 0 -- -- 75
2019-06-22 08:00:00 19.9 3 Sudoeste 5 Oeste 0 -- -- 82
2019-06-22 07:00:00 18.3 0 Calma 3 Oeste 0 -- -- 85
2019-06-22 06:00:00 18.5 0 Calma 3 Oeste 0 -- -- 85
2019-06-22 05:00:00 19.1 0 Calma 3 Sudoeste 0 -- -- 82
2019-06-22 04:00:00 20.2 0 Calma 2 Oeste 0 -- -- 79
2019-06-22 03:00:00 20.6 0 Calma 4 Este 0 -- -- 77
2019-06-22 02:00:00 21.4 0 Calma 6 Este 0 -- -- 74
2019-06-22 01:00:00 21.7 4 Este 7 Este 0 -- -- 73
2019-06-22 00:00:00 21.8 4 Nordeste 6 Nordeste 0 -- -- 73
2019-06-21 23:00:00 22.3 5 Nordeste 9 Nordeste 0 -- -- 72
2019-06-21 22:00:00 23.2 5 Este 16 Este 0 -- -- 68
2019-06-21 21:00:00 24.3 10 Este 19 Este 0 -- -- 64
2019-06-21 20:00:00 25.5 11 Este 22 Este 0 -- -- 60
2019-06-21 19:00:00 26 14 Este 30 Este 0 -- -- 60
2019-06-21 18:00:00 27.5 17 Este 32 Este 0 -- -- 56
2019-06-21 17:00:00 28.8 16 Este 31 Sudeste 0 -- -- 52
2019-06-21 16:00:00 29.4 18 Este 29 Este 0 -- -- 50
2019-06-21 15:00:00 30.1 12 Este 29 Este 0 -- -- 49
2019-06-21 14:00:00 29.7 9 Este 21 Este 0 -- -- 49
2019-06-21 13:00:00 28.2 4 Sudeste 10 Sudeste 0 -- -- 53
2019-06-21 12:00:00 26.3 4 Nordeste 13 Sudeste 0 -- -- 58
2019-06-21 11:00:00 24.9 3 Sudeste 11 Sudeste 0 -- -- 63
2019-06-21 10:00:00 24.1 3 Sudoeste 8 Este 0 -- -- 68
2019-06-21 09:00:00 22.7 2 Nordeste 5 Sudoeste 0 -- -- 76
2019-06-21 08:00:00 20.4 0 Calma 4 Sudoeste 0 -- -- 84
2019-06-21 07:00:00 19.7 0 Calma 6 Sudoeste 0 -- -- 85
2019-06-21 06:00:00 19.2 2 Este 5 Sudoeste 0 -- -- 85
2019-06-21 05:00:00 20.3 2 Sur 6 Nordeste 0 -- -- 82
2019-06-21 04:00:00 20.8 3 Nordeste 15 Este 0 -- -- 81
2019-06-21 03:00:00 21.5 6 Nordeste 15 Este 0 -- -- 80
2019-06-21 02:00:00 21.6 9 Nordeste 18 Nordeste 0 -- -- 77
2019-06-21 01:00:00 21.6 6 Nordeste 13 Nordeste 0 -- -- 79
2019-06-21 00:00:00 21.6 7 Nordeste 13 Nordeste 0 -- -- 80
2019-06-20 23:00:00 21.4 7 Este 19 Nordeste 0 -- -- 79
2019-06-20 22:00:00 22.3 13 Nordeste 22 Nordeste 0 -- -- 76
2019-06-20 21:00:00 23.4 15 Nordeste 28 Nordeste 0 -- -- 70
2019-06-20 20:00:00 25.2 17 Nordeste 29 Nordeste 0 -- -- 62
2019-06-20 19:00:00 26.7 15 Nordeste 31 Este 0 -- -- 56
2019-06-20 18:00:00 27.1 17 Nordeste 32 Nordeste 0 -- -- 55
2019-06-20 17:00:00 27.5 14 Este 31 Este 0 -- -- 54
2019-06-20 16:00:00 27.6 17 Este 32 Nordeste 0 -- -- 53
2019-06-20 15:00:00 27.9 19 Nordeste 36 Nordeste 0 -- -- 55
2019-06-20 14:00:00 28.6 19 Nordeste 35 Nordeste 0 -- -- 49
2019-06-20 13:00:00 29.7 15 Nordeste 28 Nordeste 0 -- -- 41
2019-06-20 12:00:00 29.5 11 Este 21 Nordeste 0 -- -- 42
2019-06-20 11:00:00 28.3 11 Nordeste 20 Este 0 -- -- 44
2019-06-20 10:00:00 27.2 8 Nordeste 14 Nordeste 0 -- -- 47
2019-06-20 09:00:00 25.4 8 Sudoeste 19 Sudoeste 0 -- -- 44
2019-06-20 08:00:00 22.1 9 Sudoeste 18 Sudoeste 0 -- -- 53
2019-06-20 07:00:00 19.3 9 Sudoeste 17 Sudoeste 0 -- -- 69
2019-06-20 06:00:00 19.2 5 Oeste 15 Sudoeste 0 -- -- 78
2019-06-20 05:00:00 19.1 0 Calma 8 Sudoeste 0 -- -- 82
2019-06-20 04:00:00 19.2 0 Calma 5 Sudeste 0 -- -- 86
2019-06-20 03:00:00 19.8 0 Calma 5 Oeste 0 -- -- 85
2019-06-20 02:00:00 20.6 3 Oeste 9 Sudeste 0 -- -- 85
2019-06-20 01:00:00 20.8 4 Nordeste 13 Este 0 -- -- 84
2019-06-20 00:00:00 22.4 8 Este 14 Nordeste 0 -- -- 78
2019-06-19 23:00:00 23 8 Nordeste 20 Nordeste 0 -- -- 71
2019-06-19 22:00:00 25.5 11 Este 20 Este 0 -- -- 57
2019-06-19 21:00:00 30.2 6 Este 17 Este 0 -- -- 32
2019-06-19 20:00:00 32.1 9 Este 25 Sudeste 0 -- -- 28
2019-06-19 19:00:00 33.3 10 Sudeste 24 Sudeste 0 -- -- 25
2019-06-19 18:00:00 34 10 Sudeste 26 Sudeste 0 -- -- 27
2019-06-19 17:00:00 34.8 9 Sudeste 24 Sudeste 0 -- -- 24
2019-06-19 16:00:00 35.3 7 Sur 24 Sur 0 -- -- 27
2019-06-19 15:00:00 34.8 6 Sudeste 19 Este 0 -- -- 30
2019-06-19 14:00:00 33.9 6 Sudeste 18 Sudeste 0 -- -- 26
2019-06-19 13:00:00 32.1 6 Sudoeste 15 Sudoeste 0 -- -- 29
2019-06-19 12:00:00 30.5 5 Sur 17 Sudoeste 0 -- -- 34
2019-06-19 11:00:00 27.6 7 Sudoeste 16 Sudoeste 0 -- -- 41
2019-06-19 10:00:00 24 7 Sudoeste 17 Sudoeste 0 -- -- 55
2019-06-19 09:00:00 22.1 7 Sudoeste 15 Sudoeste 0 -- -- 67
2019-06-19 08:00:00 19.6 7 Sudoeste 24 Sudoeste 0 -- -- 78
2019-06-19 07:00:00 18.7 10 Sudoeste 15 Sudoeste 0 -- -- 84
2019-06-19 06:00:00 18.6 5 Sudoeste 9 Sudoeste 0 -- -- 87
2019-06-19 05:00:00 18.9 2 Sudoeste 5 Sudoeste 0 -- -- 86
2019-06-19 04:00:00 18.9 0 Calma 4 Sudoeste 0 -- -- 87
2019-06-19 03:00:00 18.9 0 Calma 3 Sudoeste 0 -- -- 85
2019-06-19 02:00:00 19.5 2 Nordeste 8 Este 0 -- -- 83
2019-06-19 01:00:00 20.3 5 Este 10 Nordeste 0 -- -- 82
2019-06-19 00:00:00 20.9 6 Nordeste 12 Nordeste 0 -- -- 80
2019-06-18 23:00:00 21.6 6 Nordeste 15 Este 0 -- -- 74
2019-06-18 22:00:00 22.7 7 Nordeste 15 Nordeste 0 -- -- 64
2019-06-18 21:00:00 24.7 10 Este 22 Este 0 -- -- 56
2019-06-18 20:00:00 26.6 14 Nordeste 27 Este 0 -- -- 44
2019-06-18 19:00:00 29.1 13 Este 26 Nordeste 0 -- -- 39
2019-06-18 18:00:00 30.3 13 Este 26 Este 0 -- -- 34
2019-06-18 17:00:00 30.9 13 Este 28 Este 0 -- -- 37
2019-06-18 16:00:00 31 14 Este 33 Este 0 -- -- 37
2019-06-18 15:00:00 30.7 13 Este 25 Este 0 -- -- 34
2019-06-18 14:00:00 30.2 9 Este 23 Este 0 -- -- 35
2019-06-18 13:00:00 28.7 11 Este 26 Este 0 -- -- 44
2019-06-18 12:00:00 26.9 9 Nordeste 21 Este 0 -- -- 50
2019-06-18 11:00:00 25 4 Nordeste 11 Este 0 -- -- 52
2019-06-18 10:00:00 22.6 2 Nordeste 6 Sudoeste 0 -- -- 56
2019-06-18 09:00:00 19.3 3 Sudoeste 7 Sudoeste 0 -- -- 68
2019-06-18 08:00:00 16.6 4 Sudoeste 5 Sudoeste 0 -- -- 76
2019-06-18 07:00:00 14.7 2 Sudoeste 5 Sudoeste 0 -- -- 83
2019-06-18 06:00:00 15.9 4 Sudoeste 8 Sudoeste 0 -- -- 80
2019-06-18 05:00:00 15.1 0 Calma 3 Sudoeste 0 -- -- 85
2019-06-18 04:00:00 16.6 2 Sudoeste 4 Este 0 -- -- 85
2019-06-18 03:00:00 17.8 0 Calma 5 Nordeste 0 -- -- 86
2019-06-18 02:00:00 18.7 5 Nordeste 9 Este 0 -- -- 85
2019-06-18 01:00:00 19.2 5 Este 10 Este 0 -- -- 82
2019-06-18 00:00:00 19.9 5 Este 13 Este 0 -- -- 79
2019-06-17 23:00:00 21.2 8 Nordeste 18 Nordeste 0 -- -- 69
2019-06-17 22:00:00 22.7 6 Nordeste 18 Nordeste 0 -- -- 55
2019-06-17 21:00:00 25.7 10 Este 25 Este 0 -- -- 40
2019-06-17 20:00:00 28.2 14 Este 23 Este 0 -- -- 33
2019-06-17 19:00:00 29.8 14 Este 27 Sudeste 0 -- -- 31
2019-06-17 18:00:00 31.6 10 Este 26 Sudeste 0 -- -- 31
2019-06-17 17:00:00 32.1 13 Sudeste 23 Este 0 -- -- 27
2019-06-17 16:00:00 32.2 11 Sudeste 41 Este 0 -- -- 24
2019-06-17 15:00:00 32 8 Sudeste 25 Este 0 -- -- 29
2019-06-17 14:00:00 31.1 11 Este 25 Este 0 -- -- 34
2019-06-17 13:00:00 29.6 4 Noroeste 13 Sudeste 0 -- -- 32
2019-06-17 12:00:00 27.3 4 Sudoeste 10 Oeste 0 -- -- 33
2019-06-17 11:00:00 24.3 4 Oeste 15 Sudoeste 0 -- -- 50
2019-06-17 10:00:00 21.8 5 Oeste 17 Sudoeste 0 -- -- 60
2019-06-17 09:00:00 19.3 7 Sudoeste 12 Sudoeste 0 -- -- 68
2019-06-17 08:00:00 15.9 4 Sudoeste 7 Sudoeste 0 -- -- 80
2019-06-17 07:00:00 14.7 3 Sudoeste 6 Oeste 0 -- -- 83
2019-06-17 06:00:00 14.1 0 Calma 4 Sudeste 0 -- -- 84
2019-06-17 05:00:00 15.5 3 Sudoeste 8 Sudoeste 0 -- -- 84
2019-06-17 04:00:00 15.1 0 Calma 4 Sudoeste 0 -- -- 85
2019-06-17 03:00:00 17.1 0 Calma 6 Sudoeste 0 -- -- 81
2019-06-17 02:00:00 17.7 4 Sudoeste 7 Sudoeste 0 -- -- 83
2019-06-17 01:00:00 18.2 0 Calma 5 Sudoeste 0 -- -- 82
2019-06-17 00:00:00 19 0 Calma 5 Sudeste 0 -- -- 81
2019-06-16 23:00:00 20.6 3 Sudeste 6 Este 0 -- -- 76
2019-06-16 22:00:00 21.3 4 Este 12 Nordeste 0 -- -- 73
2019-06-16 21:00:00 22.1 7 Este 17 Este 0 -- -- 70
2019-06-16 20:00:00 23.1 10 Este 21 Sudeste 0 -- -- 64
2019-06-16 19:00:00 23.8 11 Este 25 Este 0 -- -- 60
2019-06-16 18:00:00 24.4 13 Nordeste 27 Este 0 -- -- 58
2019-06-16 17:00:00 23.8 14 Este 28 Este 0 -- -- 61
2019-06-16 16:00:00 24.1 14 Este 32 Este 0 -- -- 58
2019-06-16 15:00:00 24.9 19 Este 33 Este 0 -- -- 55
2019-06-16 14:00:00 25.7 16 Este 30 Este 0 -- -- 54
2019-06-16 13:00:00 25.5 14 Este 28 Nordeste 0 -- -- 57
2019-06-16 12:00:00 24.4 15 Este 26 Este 0 -- -- 60
2019-06-16 11:00:00 24.7 9 Este 16 Este 0 -- -- 51
2019-06-16 10:00:00 22.6 3 Noroeste 7 Noroeste 0 -- -- 54
2019-06-16 09:00:00 20.5 2 Sudoeste 5 Oeste 0 -- -- 54
2019-06-16 08:00:00 17.5 0 Calma 6 Sudoeste 0 -- -- 63
2019-06-16 07:00:00 15.5 4 Sudoeste 5 Sudoeste 0 -- -- 68
2019-06-16 06:00:00 16.5 0 Calma 6 Sudoeste 0 -- -- 63
2019-06-16 05:00:00 17.1 2 Sudoeste 8 Sudoeste 0 -- -- 63
2019-06-16 04:00:00 17.7 4 Sudoeste 7 Sudoeste 0 -- -- 68
2019-06-16 03:00:00 17.7 2 Noroeste 5 Nordeste 0 -- -- 71
2019-06-16 02:00:00 18.6 4 Nordeste 10 Este 0 -- -- 66
2019-06-16 01:00:00 19.4 8 Este 12 Este 0 -- -- 62
2019-06-16 00:00:00 20.7 7 Este 13 Este 0 -- -- 48
2019-06-15 23:00:00 21.9 5 Nordeste 8 Nordeste 0 -- -- 44
2019-06-15 22:00:00 23.6 5 Nordeste 12 Este 0 -- -- 41
2019-06-15 21:00:00 27 6 Sudeste 15 Sur 0 -- -- 36
2019-06-15 20:00:00 28.5 9 Sudeste 22 Sudeste 0 -- -- 34
2019-06-15 19:00:00 29.8 10 Sudeste 23 Sudeste 0 -- -- 32
2019-06-15 18:00:00 30.8 9 Sudeste 27 Sudeste 0 -- -- 30
2019-06-15 17:00:00 31.3 12 Sudeste 26 Sur 0 -- -- 29
2019-06-15 16:00:00 32.1 6 Sudoeste 18 Sudeste 0 -- -- 22
2019-06-15 15:00:00 30.6 6 Sur 21 Oeste 0 -- -- 22
2019-06-15 14:00:00 29.4 9 Sudoeste 21 Sudoeste 0 -- -- 25
2019-06-15 13:00:00 28.4 6 Sudoeste 22 Sudoeste 0 -- -- 25
2019-06-15 12:00:00 27.1 8 Oeste 23 Oeste 0 -- -- 28
2019-06-15 11:00:00 26.1 6 Sudoeste 22 Sudoeste 0 -- -- 29
2019-06-15 10:00:00 24.5 6 Oeste 19 Noroeste 0 -- -- 32
2019-06-15 09:00:00 23.2 5 Oeste 12 Oeste 0 -- -- 34
2019-06-15 08:00:00 20.7 7 Sudoeste 14 Oeste 0 -- -- 40
2019-06-15 07:00:00 19.2 4 Sudoeste 8 Sudoeste 0 -- -- 44
2019-06-15 06:00:00 21.5 6 Sudoeste 15 Oeste 0 -- -- 38
2019-06-15 05:00:00 22.6 4 Oeste 21 Sudoeste 0 -- -- 34
2019-06-15 04:00:00 22.7 5 Sudoeste 15 Oeste 0 -- -- 33
2019-06-15 03:00:00 18.2 3 Sudeste 5 Norte 0 -- -- 75
2019-06-15 02:00:00 19.8 0 Calma 5 Sudoeste 0 -- -- 72
2019-06-15 01:00:00 20.9 2 Sudoeste 8 Nordeste 0 -- -- 67
2019-06-15 00:00:00 22.1 5 Este 9 Este 0 -- -- 63
2019-06-14 23:00:00 23.6 2 Sudoeste 7 Sudeste 0 -- -- 51
2019-06-14 22:00:00 25.9 3 Sudeste 6 Sur 0 -- -- 44
2019-06-14 21:00:00 27.7 2 Sur 9 Oeste 0 -- -- 38
2019-06-14 20:00:00 29.5 5 Sudoeste 18 Sudeste 0 -- -- 37
2019-06-14 19:00:00 30.5 9 Sudeste 23 Sur 0 -- -- 36
2019-06-14 18:00:00 30.8 8 Sudeste 25 Sudeste 0 -- -- 36
2019-06-14 17:00:00 31.3 9 Sudeste 29 Sudeste 0 -- -- 35
2019-06-14 16:00:00 30.8 11 Sudeste 23 Este 0 -- -- 40
2019-06-14 15:00:00 30.6 6 Sudeste 15 Sudoeste 0 -- -- 41
2019-06-14 14:00:00 29 5 Sur 19 Sur 0 -- -- 38
2019-06-14 13:00:00 27.2 4 Sudoeste 15 Sudeste 0 -- -- 45
2019-06-14 12:00:00 24.5 5 Sudoeste 17 Sudoeste 0 -- -- 60
2019-06-14 11:00:00 21.9 4 Oeste 12 Sudoeste 0 -- -- 78
2019-06-14 10:00:00 19.4 2 Sur 17 Oeste 1.4 -- -- 84
2019-06-14 09:00:00 21.1 8 Oeste 16 Sudoeste 0 -- -- 65
2019-06-14 08:00:00 21.3 5 Sudoeste 8 Sudoeste 0 -- -- 66
2019-06-14 07:00:00 20.1 3 Sudoeste 9 Oeste 0 -- -- 70
2019-06-14 06:00:00 20.2 4 Sudoeste 14 Sudoeste 0 -- -- 68
2019-06-14 05:00:00 20.4 4 Oeste 11 Oeste 0 -- -- 68
2019-06-14 04:00:00 20.8 4 Sudoeste 15 Sudoeste 0 -- -- 64
2019-06-14 03:00:00 20.1 5 Oeste 14 Sudoeste 0 -- -- 62
2019-06-14 02:00:00 19.4 9 Sudoeste 17 Sudoeste 0 -- -- 68
2019-06-14 01:00:00 19.9 10 Sudoeste 16 Sudoeste 0 -- -- 67
2019-06-14 00:00:00 20 5 Sudoeste 7 Sudoeste 0 -- -- 67
2019-06-13 23:00:00 20.1 2 Oeste 8 Sudeste 0 -- -- 67
2019-06-13 22:00:00 21.1 4 Sudeste 19 Este 0 -- -- 63
2019-06-13 21:00:00 22.1 10 Este 29 Este 0 -- -- 60
2019-06-13 20:00:00 23.7 14 Nordeste 33 Este 0 -- -- 52
2019-06-13 19:00:00 24.6 18 Este 36 Este 0 -- -- 49
2019-06-13 18:00:00 25.1 18 Este 35 Nordeste 0 -- -- 48
2019-06-13 17:00:00 25.3 19 Este 43 Este 0 -- -- 46
2019-06-13 16:00:00 25.4 21 Este 45 Este 0 -- -- 47
2019-06-13 15:00:00 25.5 21 Este 42 Este 0 -- -- 46
2019-06-13 14:00:00 25.5 19 Este 37 Este 0 -- -- 49
2019-06-13 13:00:00 24.9 18 Nordeste 35 Nordeste 0 -- -- 49
2019-06-13 12:00:00 24.8 14 Nordeste 35 Nordeste 0 -- -- 49
2019-06-13 11:00:00 22.4 11 Nordeste 24 Nordeste 0 -- -- 59
2019-06-13 10:00:00 21.3 10 Nordeste 24 Este 0 -- -- 68
2019-06-13 09:00:00 20.5 10 Nordeste 25 Nordeste 0 -- -- 74
2019-06-13 08:00:00 19.6 12 Este 22 Este 0 -- -- 82
2019-06-13 07:00:00 19.3 7 Nordeste 22 Nordeste 0 -- -- 82
2019-06-13 06:00:00 19.8 11 Nordeste 23 Nordeste 0 -- -- 83
2019-06-13 05:00:00 20 6 Nordeste 14 Nordeste 0 -- -- 81
2019-06-13 04:00:00 19.8 2 Noroeste 12 Norte 0 -- -- 79
2019-06-13 03:00:00 19.6 4 Nordeste 17 Nordeste 0 -- -- 79
2019-06-13 02:00:00 19.7 8 Nordeste 19 Nordeste 0 -- -- 79
2019-06-13 01:00:00 19.8 8 Nordeste 22 Nordeste 0 -- -- 78
2019-06-13 00:00:00 19.9 10 Nordeste 20 Nordeste 0 -- -- 76
2019-06-12 23:00:00 19.6 13 Nordeste 22 Este 0 -- -- 76
2019-06-12 22:00:00 20 13 Nordeste 28 Este 0 -- -- 74
2019-06-12 21:00:00 20.4 12 Este 28 Este 0 -- -- 71
2019-06-12 20:00:00 21.4 17 Este 30 Nordeste 0 -- -- 66
2019-06-12 19:00:00 22.7 16 Nordeste 32 Este 0 -- -- 60
2019-06-12 18:00:00 23.5 18 Este 37 Este 0 -- -- 55
2019-06-12 17:00:00 24.6 18 Este 34 Este 0 -- -- 49
2019-06-12 16:00:00 24.7 15 Este 32 Este 0 -- -- 45
2019-06-12 15:00:00 24.4 15 Este 36 Este 0 -- -- 42
2019-06-12 14:00:00 24.3 15 Este 30 Este 0 -- -- 39
2019-06-12 13:00:00 24.2 9 Nordeste 23 Este 0 -- -- 39
2019-06-12 12:00:00 23.2 11 Este 22 Nordeste 0 -- -- 40
2019-06-12 11:00:00 22.3 10 Nordeste 23 Nordeste 0 -- -- 40
2019-06-12 10:00:00 21.2 10 Nordeste 17 Nordeste 0 -- -- 46
2019-06-12 09:00:00 19.3 2 Norte 5 Oeste 0 -- -- 62
2019-06-12 08:00:00 16.3 3 Sudoeste 5 Sudoeste 0 -- -- 74
2019-06-12 07:00:00 15.1 0 Calma 9 Sudoeste 0 -- -- 77
2019-06-12 06:00:00 15.5 0 Calma 5 Sudoeste 0 -- -- 77
2019-06-12 05:00:00 16.2 3 Nordeste 10 Nordeste 0 -- -- 74
2019-06-12 04:00:00 16.3 5 Nordeste 9 Nordeste 0 -- -- 74
2019-06-12 03:00:00 17.3 5 Nordeste 10 Este 0 -- -- 72
2019-06-12 02:00:00 18.3 7 Nordeste 18 Este 0 -- -- 68
2019-06-12 01:00:00 18.5 4 Este 12 Este 0 -- -- 66
2019-06-12 00:00:00 18.8 6 Este 13 Este 0 -- -- 68
2019-06-11 23:00:00 19.3 4 Este 20 Nordeste 0 -- -- 68
2019-06-11 22:00:00 19.6 12 Nordeste 30 Nordeste 0 -- -- 67
2019-06-11 21:00:00 20.1 17 Este 37 Nordeste 0 -- -- 68
2019-06-11 20:00:00 20.9 22 Nordeste 45 Este 0 -- -- 68
2019-06-11 19:00:00 23.6 22 Este 39 Nordeste 0 -- -- 64
2019-06-11 18:00:00 24.7 19 Este 38 Nordeste 0 -- -- 57
2019-06-11 17:00:00 25.9 19 Este 31 Este 0 -- -- 54
2019-06-11 16:00:00 26.7 16 Este 28 Este 0 -- -- 51
2019-06-11 15:00:00 26.9 15 Este 29 Nordeste 0 -- -- 51
2019-06-11 14:00:00 26.7 17 Nordeste 30 Este 0 -- -- 53
2019-06-11 13:00:00 27 9 Nordeste 21 Este 0 -- -- 48
2019-06-11 12:00:00 25.5 10 Este 21 Este 0 -- -- 50
2019-06-11 11:00:00 23.9 7 Este 19 Este 0 -- -- 59
2019-06-11 10:00:00 22.2 6 Nordeste 12 Este 0 -- -- 62
2019-06-11 09:00:00 20.2 2 Sudoeste 10 Sudoeste 0 -- -- 72
2019-06-11 08:00:00 17.1 3 Sudoeste 6 Sudoeste 0 -- -- 84
2019-06-11 07:00:00 16.2 3 Oeste 6 Sudoeste 0 -- -- 87
2019-06-11 06:00:00 16.6 0 Calma 4 Sudoeste 0 -- -- 85
2019-06-11 05:00:00 17.8 0 Calma 6 Sudoeste 0 -- -- 84
2019-06-11 04:00:00 17.9 4 Sudoeste 5 Sudoeste 0 -- -- 84
2019-06-11 03:00:00 18 0 Calma 4 Sudoeste 0 -- -- 84
2019-06-11 02:00:00 18.9 0 Calma 8 Este 0 -- -- 82
2019-06-11 01:00:00 19.4 5 Este 15 Este 0 -- -- 81
2019-06-11 00:00:00 19.9 8 Nordeste 18 Nordeste 0 -- -- 80
2019-06-10 23:00:00 20.7 11 Nordeste 20 Nordeste 0 -- -- 77
2019-06-10 22:00:00 21.5 11 Nordeste 22 Nordeste 0 -- -- 68
2019-06-10 21:00:00 22.9 12 Nordeste 23 Nordeste 0 -- -- 65
2019-06-10 20:00:00 24.2 13 Nordeste 27 Este 0 -- -- 54
2019-06-10 19:00:00 24.7 18 Nordeste 33 Este 0 -- -- 55
2019-06-10 18:00:00 26.7 18 Este 36 Este 0 -- -- 46
2019-06-10 17:00:00 28.2 19 Este 32 Este 0 -- -- 39
2019-06-10 16:00:00 29.8 17 Este 30 Este 0 -- -- 34
2019-06-10 15:00:00 29.6 18 Este 33 Este 0 -- -- 36
2019-06-10 14:00:00 29.9 17 Este 31 Nordeste 0 -- -- 36
2019-06-10 13:00:00 30.4 9 Oeste 23 Oeste 0 -- -- 22
2019-06-10 12:00:00 29 12 Sudoeste 21 Sudoeste 0 -- -- 24
2019-06-10 11:00:00 27.3 10 Oeste 22 Sudoeste 0 -- -- 28
2019-06-10 10:00:00 24.9 10 Oeste 20 Sudoeste 0 -- -- 33
2019-06-10 09:00:00 23.8 14 Sudoeste 21 Sudoeste 0 -- -- 35
2019-06-10 08:00:00 22.1 10 Sudoeste 21 Sudoeste 0 -- -- 37
2019-06-10 07:00:00 21.1 8 Sudoeste 18 Sudoeste 0 -- -- 38
2019-06-10 06:00:00 20.7 4 Oeste 13 Sudoeste 0 -- -- 43
2019-06-10 05:00:00 18.5 2 Sur 6 Sur 0 -- -- 73
2019-06-10 04:00:00 19 3 Sudoeste 11 Sudoeste 0 -- -- 79
2019-06-10 03:00:00 19.2 4 Oeste 8 Sudoeste 0 -- -- 77
2019-06-10 02:00:00 19.5 3 Sudoeste 8 Sudoeste 0 -- -- 72
2019-06-10 01:00:00 19.8 0 Calma 4 Oeste 0 -- -- 68
2019-06-10 00:00:00 20.8 0 Calma 4 Oeste 0 -- -- 65
2019-06-09 23:00:00 21.8 0 Calma 4 Oeste 0 -- -- 62
2019-06-09 22:00:00 24.1 2 Sudoeste 14 Sudeste 0 -- -- 56
2019-06-09 21:00:00 26 3 Sur 18 Sur 0 -- -- 50
2019-06-09 20:00:00 27.9 6 Sur 18 Sudeste 0 -- -- 44
2019-06-09 19:00:00 29.4 6 Sudoeste 19 Sudeste 0 -- -- 41
2019-06-09 18:00:00 30.6 6 Sur 23 Sudeste 0 -- -- 37
2019-06-09 17:00:00 30.2 6 Sudeste 14 Este 0 -- -- 33
2019-06-09 16:00:00 29.3 6 Sudoeste 13 Este 0 -- -- 35
2019-06-09 15:00:00 28.6 6 Sur 16 Sudoeste 0 -- -- 37
2019-06-09 14:00:00 26.3 11 Sudoeste 19 Sudoeste 0 -- -- 42
2019-06-09 13:00:00 26 10 Sudoeste 18 Sudoeste 0 -- -- 42
2019-06-09 12:00:00 26.2 7 Sudoeste 18 Sudoeste 0 -- -- 41
2019-06-09 11:00:00 24.6 8 Sudoeste 17 Sudoeste 0 -- -- 45
2019-06-09 10:00:00 22.4 5 Sudoeste 15 Sudoeste 0 -- -- 56
2019-06-09 09:00:00 20.5 11 Sudoeste 16 Sudoeste 0 -- -- 61
2019-06-09 08:00:00 18.6 3 Oeste 11 Sudoeste 0 -- -- 69
2019-06-09 07:00:00 18.8 5 Sudoeste 17 Sudoeste 0 -- -- 67
2019-06-09 06:00:00 18.5 8 Sudoeste 13 Sudoeste 0 -- -- 69
2019-06-09 05:00:00 19 6 Sudoeste 14 Sudoeste 0 -- -- 68
2019-06-09 04:00:00 19.2 9 Sudoeste 15 Sudoeste 0 -- -- 67
2019-06-09 03:00:00 19.5 5 Sudoeste 10 Sudoeste 0 -- -- 68
2019-06-09 02:00:00 19.4 4 Oeste 6 Oeste 0 -- -- 69
2019-06-09 01:00:00 19.4 0 Calma 4 Este 0 -- -- 68
2019-06-09 00:00:00 20.4 0 Calma 4 Oeste 0 -- -- 63
2019-06-08 23:00:00 21 0 Calma 6 Este 0 -- -- 58
2019-06-08 22:00:00 22.5 0 Calma 21 Nordeste 0 -- -- 52
2019-06-08 21:00:00 23.7 10 Este 22 Nordeste 0 -- -- 49
2019-06-08 20:00:00 24.1 11 Nordeste 35 Nordeste 0 -- -- 49
2019-06-08 19:00:00 24.5 20 Este 37 Nordeste 0 -- -- 52
2019-06-08 18:00:00 25 20 Nordeste 38 Nordeste 0 -- -- 52
2019-06-08 17:00:00 25.1 21 Nordeste 42 Nordeste 0 -- -- 52
2019-06-08 16:00:00 25.3 24 Este 42 Este 0 -- -- 53
2019-06-08 15:00:00 25.1 26 Este 48 Este 0 -- -- 53
2019-06-08 14:00:00 25.5 26 Este 45 Este 0 -- -- 51
2019-06-08 13:00:00 25.5 21 Nordeste 42 Nordeste 0 -- -- 51
2019-06-08 12:00:00 25 24 Este 44 Nordeste 0 -- -- 55
2019-06-08 11:00:00 25.7 16 Este 39 Este 0 -- -- 53
2019-06-08 10:00:00 22.8 3 Norte 8 Noroeste 0 -- -- 52
2019-06-08 09:00:00 20.1 2 Sudoeste 12 Sudoeste 0 -- -- 64
2019-06-08 08:00:00 17.3 4 Sudoeste 9 Sudoeste 0 -- -- 71
2019-06-08 07:00:00 16.2 5 Oeste 8 Oeste 0 -- -- 81
2019-06-08 06:00:00 16.5 0 Calma 5 Sudoeste 0 -- -- 80
2019-06-08 05:00:00 16.9 0 Calma 6 Oeste 0 -- -- 80
2019-06-08 04:00:00 18 5 Sudoeste 6 Oeste 0 -- -- 76
2019-06-08 03:00:00 18.8 3 Sudoeste 9 Este 0 -- -- 80
2019-06-08 02:00:00 19.6 5 Nordeste 11 Este 0 -- -- 78
2019-06-08 01:00:00 19.5 6 Nordeste 15 Nordeste 0 -- -- 76
2019-06-08 00:00:00 20.6 9 Este 21 Nordeste 0 -- -- 71
2019-06-07 23:00:00 21.5 12 Nordeste 23 Nordeste 0 -- -- 66
2019-06-07 22:00:00 23.7 5 Nordeste 12 Nordeste 0 -- -- 36
2019-06-07 21:00:00 26.7 5 Sudeste 15 Sur 0 -- -- 36
2019-06-07 20:00:00 28.2 6 Sudeste 21 Sudeste 0 -- -- 33
2019-06-07 19:00:00 29.2 8 Sudeste 23 Sur 0 -- -- 34
2019-06-07 18:00:00 29.7 9 Sur 25 Sur 0 -- -- 34
2019-06-07 17:00:00 30.3 14 Sudeste 28 Sudeste 0 -- -- 31
2019-06-07 16:00:00 31 13 Sudeste 29 Sudeste 0 -- -- 36
2019-06-07 15:00:00 30.6 6 Sudoeste 19 Sudoeste 0 -- -- 26
2019-06-07 14:00:00 29.6 5 Sur 17 Oeste 0 -- -- 29
2019-06-07 13:00:00 28.6 5 Oeste 19 Oeste 0 -- -- 31
2019-06-07 12:00:00 26.9 9 Oeste 35 Sudoeste 0 -- -- 34
2019-06-07 11:00:00 25.1 17 Oeste 41 Oeste 0 -- -- 39
2019-06-07 10:00:00 22.9 11 Oeste 24 Sudoeste 0 -- -- 45
2019-06-07 09:00:00 19.5 5 Sudoeste 28 Sudoeste 0 -- -- 74
2019-06-07 08:00:00 17.2 13 Sudoeste 23 Sudoeste 0 -- -- 82
2019-06-07 07:00:00 15.5 3 Sudoeste 9 Sudoeste 0 -- -- 86
2019-06-07 06:00:00 16.2 4 Sudoeste 6 Sur 0 -- -- 87
2019-06-07 05:00:00 16.4 2 Sur 6 Sudeste 0 -- -- 86
2019-06-07 04:00:00 16.3 0 Calma 4 Este 0 -- -- 87
2019-06-07 03:00:00 17.3 3 Este 5 Nordeste 0 -- -- 83
2019-06-07 02:00:00 18.1 4 Nordeste 8 Este 0 -- -- 84
2019-06-07 01:00:00 18.4 5 Este 10 Este 0 -- -- 83
2019-06-07 00:00:00 19.1 4 Este 11 Nordeste 0 -- -- 80
2019-06-06 23:00:00 19.5 7 Nordeste 14 Este 0 -- -- 78
2019-06-06 22:00:00 20.4 7 Este 18 Este 0 -- -- 74
2019-06-06 21:00:00 22.1 11 Este 23 Este 0 -- -- 64
2019-06-06 20:00:00 23.8 12 Este 28 Nordeste 0 -- -- 61
2019-06-06 19:00:00 24.6 13 Nordeste 27 Nordeste 0 -- -- 59
2019-06-06 18:00:00 25.5 15 Este 27 Este 0 -- -- 53
2019-06-06 17:00:00 25.7 14 Este 32 Este 0 -- -- 49
2019-06-06 16:00:00 26.1 17 Este 33 Este 0 -- -- 48
2019-06-06 15:00:00 26.3 19 Este 34 Este 0 -- -- 49
2019-06-06 14:00:00 26.6 17 Este 32 Nordeste 0 -- -- 41
2019-06-06 13:00:00 26.7 14 Nordeste 29 Nordeste 0 -- -- 49
2019-06-06 12:00:00 26 11 Nordeste 24 Este 0 -- -- 51
2019-06-06 11:00:00 24.9 4 Nordeste 12 Nordeste 0 -- -- 33
2019-06-06 10:00:00 22.5 2 Oeste 11 Sudoeste 0 -- -- 36
2019-06-06 09:00:00 20.4 4 Oeste 12 Sudoeste 0 -- -- 41
2019-06-06 08:00:00 16.2 3 Oeste 7 Sudoeste 0 -- -- 49
2019-06-06 07:00:00 12.7 3 Sudoeste 10 Sudoeste 0 -- -- 61
2019-06-06 06:00:00 12.7 4 Sudoeste 8 Sudoeste 0 -- -- 62
2019-06-06 05:00:00 13.5 0 Calma 4 Sur 0 -- -- 62
2019-06-06 04:00:00 14 0 Calma 5 Sudoeste 0 -- -- 61
2019-06-06 03:00:00 15.4 0 Calma 5 Sudoeste 0 -- -- 55
2019-06-06 02:00:00 17.8 0 Calma 9 Sudoeste 0 -- -- 45
2019-06-06 01:00:00 19.1 3 Oeste 6 Este 0 -- -- 46
2019-06-06 00:00:00 21.1 4 Este 11 Este 0 -- -- 37
2019-06-05 23:00:00 22 5 Noroeste 10 Sur 0 -- -- 32
2019-06-05 22:00:00 25.3 2 Oeste 13 Noroeste 0 -- -- 23
2019-06-05 21:00:00 27 9 Noroeste 19 Oeste 0 -- -- 19
2019-06-05 20:00:00 27.9 5 Noroeste 27 Oeste 0 -- -- 19
2019-06-05 19:00:00 28.8 13 Oeste 33 Sudoeste 0 -- -- 17
2019-06-05 18:00:00 29.8 12 Oeste 35 Oeste 0 -- -- 17
2019-06-05 17:00:00 29.4 15 Oeste 44 Oeste 0 -- -- 18
2019-06-05 16:00:00 29.1 21 Oeste 48 Oeste 0 -- -- 17
2019-06-05 15:00:00 28.2 21 Oeste 42 Oeste 0 -- -- 18
2019-06-05 14:00:00 27.6 19 Oeste 40 Oeste 0 -- -- 17
2019-06-05 13:00:00 27.8 18 Oeste 37 Oeste 0 -- -- 22
2019-06-05 12:00:00 27.5 21 Oeste 47 Oeste 0 -- -- 29
2019-06-05 11:00:00 26.6 23 Oeste 44 Oeste 0 -- -- 36
2019-06-05 10:00:00 24.6 12 Oeste 35 Oeste 0 -- -- 46
2019-06-05 09:00:00 20.6 13 Sudoeste 19 Sudoeste 0 -- -- 71
2019-06-05 08:00:00 17.2 2 Sudoeste 6 Sudoeste 0 -- -- 83
2019-06-05 07:00:00 16.6 3 Sudoeste 7 Sudoeste 0 -- -- 82
2019-06-05 06:00:00 16.7 0 Calma 5 Oeste 0 -- -- 82
2019-06-05 05:00:00 16.6 2 Sur 4 Oeste 0 -- -- 78
2019-06-05 04:00:00 17.2 4 Sudoeste 6 Sudoeste 0 -- -- 85
2019-06-05 03:00:00 17.6 0 Calma 6 Este 0 -- -- 81
2019-06-05 02:00:00 18.4 4 Este 8 Este 0 -- -- 77
2019-06-05 01:00:00 19.1 5 Este 9 Nordeste 0 -- -- 74
2019-06-05 00:00:00 19.8 6 Nordeste 13 Nordeste 0 -- -- 72
2019-06-04 23:00:00 20.7 8 Nordeste 17 Nordeste 0 -- -- 69
2019-06-04 22:00:00 22.2 9 Nordeste 21 Este 0 -- -- 65
2019-06-04 21:00:00 25.5 9 Nordeste 18 Nordeste 0 -- -- 49
2019-06-04 20:00:00 29 8 Sudeste 19 Sudeste 0 -- -- 29
2019-06-04 19:00:00 30.1 10 Sudeste 23 Sudeste 0 -- -- 29
2019-06-04 18:00:00 32.1 9 Sudeste 24 Sudeste 0 -- -- 29
2019-06-04 17:00:00 32.5 9 Sudeste 25 Sudeste 0 -- -- 28
2019-06-04 16:00:00 32.7 8 Sudeste 21 Sudeste 0 -- -- 32
2019-06-04 15:00:00 31.9 8 Sudeste 19 Norte 0 -- -- 32
2019-06-04 14:00:00 30.8 8 Este 20 Sudeste 0 -- -- 29
2019-06-04 13:00:00 28.6 3 Este 12 Este 0 -- -- 39
2019-06-04 12:00:00 26.2 5 Sur 11 Oeste 0 -- -- 44
2019-06-04 11:00:00 23.5 4 Sur 9 Sudeste 0 -- -- 57
2019-06-04 10:00:00 20.6 2 Nordeste 7 Nordeste 0 -- -- 77
2019-06-04 09:00:00 18.1 3 Oeste 8 Sudoeste 0 -- -- 86
2019-06-04 08:00:00 17 2 Sudoeste 6 Oeste 0 -- -- 88
2019-06-04 07:00:00 17.6 4 Sudoeste 5 Sudoeste 0 -- -- 87
2019-06-04 06:00:00 17.6 0 Calma 4 Sudoeste 0 -- -- 83
2019-06-04 05:00:00 16.8 0 Calma 4 Oeste 0 -- -- 88
2019-06-04 04:00:00 16.8 0 Calma 3 Sudoeste 0 -- -- 84
2019-06-04 03:00:00 17.8 0 Calma 6 Este 0 -- -- 85
2019-06-04 02:00:00 18.4 3 Este 7 Este 0 -- -- 84
2019-06-04 01:00:00 19.4 5 Nordeste 13 Nordeste 0 -- -- 82
2019-06-04 00:00:00 20 8 Nordeste 18 Nordeste 0 -- -- 78
2019-06-03 23:00:00 20.7 9 Nordeste 17 Nordeste 0 -- -- 71
2019-06-03 22:00:00 21.9 8 Nordeste 17 Nordeste 0 -- -- 61
2019-06-03 21:00:00 24.3 10 Nordeste 19 Nordeste 0 -- -- 46
2019-06-03 20:00:00 27 11 Este 20 Nordeste 0 -- -- 32
2019-06-03 19:00:00 28.4 10 Este 24 Este 0 -- -- 37
2019-06-03 18:00:00 28.7 17 Nordeste 26 Este 0 -- -- 34
2019-06-03 17:00:00 30.2 14 Nordeste 26 Este 0 -- -- 31
2019-06-03 16:00:00 30 14 Este 27 Este 0 -- -- 29
2019-06-03 15:00:00 29.3 12 Nordeste 26 Nordeste 0 -- -- 37
2019-06-03 14:00:00 28.8 12 Este 23 Este 0 -- -- 40
2019-06-03 13:00:00 28.2 7 Norte 16 Nordeste 0 -- -- 33
2019-06-03 12:00:00 27 4 Sudeste 11 Nordeste 0 -- -- 32
2019-06-03 11:00:00 24.6 3 Nordeste 9 Oeste 0 -- -- 37
2019-06-03 10:00:00 21.2 5 Sudoeste 12 Sudoeste 0 -- -- 54
2019-06-03 09:00:00 18.6 3 Sudoeste 5 Oeste 0 -- -- 61
2019-06-03 08:00:00 15.7 0 Calma 4 Sudoeste 0 -- -- 67
2019-06-03 07:00:00 13.5 0 Calma 5 Oeste 0 -- -- 72
2019-06-03 06:00:00 13.2 0 Calma 5 Sudoeste 0 -- -- 75
2019-06-03 05:00:00 14.1 2 Sudoeste 7 Sudoeste 0 -- -- 72
2019-06-03 04:00:00 15 3 Sudoeste 5 Sudoeste 0 -- -- 80
2019-06-03 03:00:00 15.8 3 Oeste 5 Oeste 0 -- -- 78
2019-06-03 02:00:00 16.6 2 Nordeste 6 Este 0 -- -- 76
2019-06-03 01:00:00 18.3 4 Este 5 Este 0 -- -- 69
2019-06-03 00:00:00 18.3 3 Norte 4 Norte 0 -- -- 71
2019-06-02 23:00:00 19.8 3 Este 11 Este 0 -- -- 63
2019-06-02 22:00:00 21.2 6 Nordeste 12 Este 0 -- -- 55
2019-06-02 21:00:00 23.7 8 Este 19 Nordeste 0 -- -- 36
2019-06-02 20:00:00 25.3 13 Nordeste 22 Este 0 -- -- 30
2019-06-02 19:00:00 27 13 Nordeste 23 Nordeste 0 -- -- 29
2019-06-02 18:00:00 28.2 14 Este 27 Este 0 -- -- 24
2019-06-02 17:00:00 28.9 12 Este 24 Sudeste 0 -- -- 25
2019-06-02 16:00:00 28.9 13 Este 25 Este 0 -- -- 23
2019-06-02 15:00:00 29.1 14 Este 26 Sudeste 0 -- -- 21
2019-06-02 14:00:00 28.9 6 Este 19 Nordeste 0 -- -- 23
2019-06-02 13:00:00 27.4 5 Noroeste 18 Este 0 -- -- 22
2019-06-02 12:00:00 26.5 5 Nordeste 10 Nordeste 0 -- -- 25
2019-06-02 11:00:00 23.7 4 Oeste 13 Sudoeste 0 -- -- 33
2019-06-02 10:00:00 20.7 6 Oeste 11 Sudoeste 0 -- -- 41
2019-06-02 09:00:00 17.3 5 Sudoeste 10 Sudoeste 0 -- -- 52
2019-06-02 08:00:00 14.7 4 Sudoeste 6 Sudoeste 0 -- -- 61
2019-06-02 07:00:00 11.6 0 Calma 4 Oeste 0 -- -- 74
2019-06-02 06:00:00 12.4 2 Sudoeste 5 Oeste 0 -- -- 71
2019-06-02 05:00:00 13.6 0 Calma 6 Sudoeste 0 -- -- 71
2019-06-02 04:00:00 15 4 Sudoeste 8 Sudoeste 0 -- -- 65
2019-06-02 03:00:00 14.7 4 Sudoeste 6 Sudoeste 0 -- -- 62
2019-06-02 02:00:00 14.8 3 Sudoeste 5 Oeste 0 -- -- 68
2019-06-02 01:00:00 16.7 2 Sudoeste 5 Sudoeste 0 -- -- 60
2019-06-02 00:00:00 17.2 0 Calma 4 Este 0 -- -- 59
2019-06-01 23:00:00 19.2 2 Norte 8 Este 0 -- -- 49
2019-06-01 22:00:00 21 5 Este 12 Este 0 -- -- 42
2019-06-01 21:00:00 23.3 8 Este 22 Este 0 -- -- 32
2019-06-01 20:00:00 24.9 10 Este 24 Este 0 -- -- 28
2019-06-01 19:00:00 26 11 Este 28 Este 0 -- -- 30
2019-06-01 18:00:00 26.7 16 Este 27 Este 0 -- -- 26
2019-06-01 17:00:00 26.9 15 Este 31 Este 0 -- -- 26
2019-06-01 16:00:00 27.4 11 Este 25 Este 0 -- -- 26
2019-06-01 15:00:00 27 12 Este 27 Este 0 -- -- 27
2019-06-01 14:00:00 27.1 9 Este 27 Norte 0 -- -- 30
2019-06-01 13:00:00 26.4 7 Nordeste 21 Nordeste 0 -- -- 29
2019-06-01 12:00:00 25.4 9 Nordeste 16 Nordeste 0 -- -- 31
2019-06-01 11:00:00 23.5 4 Nordeste 10 Este 0 -- -- 34
2019-06-01 10:00:00 20.1 5 Oeste 10 Sudoeste 0 -- -- 55
2019-06-01 09:00:00 17 5 Sudoeste 9 Sudoeste 0 -- -- 66
2019-06-01 08:00:00 14.2 3 Sudoeste 6 Sudoeste 0 -- -- 76
2019-06-01 07:00:00 12.3 3 Sudoeste 5 Sudoeste 0 -- -- 85
2019-06-01 06:00:00 12.7 3 Sudoeste 6 Sudoeste 0 -- -- 81
2019-06-01 05:00:00 14 2 Sudoeste 5 Sudoeste 0 -- -- 81
2019-06-01 04:00:00 14 4 Sudoeste 5 Sudoeste 0 -- -- 81
2019-06-01 03:00:00 14.6 0 Calma 6 Sudoeste 0 -- -- 78
2019-06-01 02:00:00 15 2 Sudoeste 5 Sudoeste 0 -- -- 79
2019-06-01 01:00:00 16.4 3 Sudoeste 5 Oeste 0 -- -- 75
2019-06-01 00:00:00 17.2 0 Calma 9 Este 0 -- -- 71
2019-05-31 23:00:00 18.8 5 Este 9 Este 0 -- -- 64
2019-05-31 22:00:00 20.1 6 Este 9 Este 0 -- -- 56
2019-05-31 21:00:00 21.8 8 Este 21 Este 0 -- -- 45
2019-05-31 20:00:00 23.2 13 Este 25 Este 0 -- -- 43
2019-05-31 19:00:00 24.3 13 Este 26 Este 0 -- -- 42
2019-05-31 18:00:00 24.9 12 Este 27 Este 0 -- -- 41
2019-05-31 17:00:00 25.3 15 Este 30 Nordeste 0 -- -- 38
2019-05-31 16:00:00 25.7 14 Este 27 Este 0 -- -- 37
2019-05-31 15:00:00 26 15 Este 30 Este 0 -- -- 43
2019-05-31 14:00:00 25.4 13 Este 26 Este 0 -- -- 45
2019-05-31 13:00:00 25.5 12 Este 24 Sudeste 0 -- -- 38
2019-05-31 12:00:00 24.7 10 Este 18 Este 0 -- -- 40
2019-05-31 11:00:00 22.2 3 Norte 8 Sudoeste 0 -- -- 49
2019-05-31 10:00:00 19.7 4 Oeste 6 Oeste 0 -- -- 61
2019-05-31 09:00:00 17.1 4 Sudoeste 7 Sudoeste 0 -- -- 73
2019-05-31 08:00:00 14.4 3 Sudoeste 6 Sudoeste 0 -- -- 81
2019-05-31 07:00:00 12.8 0 Calma 3 Sur 0 -- -- 84
2019-05-31 06:00:00 13 0 Calma 5 Oeste 0 -- -- 84
2019-05-31 05:00:00 12.8 0 Calma 3 Sudoeste 0 -- -- 85
2019-05-31 04:00:00 14.2 2 Sudoeste 8 Sudoeste 0 -- -- 81
2019-05-31 03:00:00 15.2 5 Sudoeste 9 Sudoeste 0 -- -- 79
2019-05-31 02:00:00 14.5 0 Calma 3 Sudeste 0 -- -- 81
2019-05-31 01:00:00 16 0 Calma 4 Sudeste 0 -- -- 75
2019-05-31 00:00:00 16.7 2 Nordeste 3 Nordeste 0 -- -- 73
2019-05-30 23:00:00 17.7 3 Nordeste 7 Este 0 -- -- 69
2019-05-30 22:00:00 19.2 4 Este 16 Este 0 -- -- 63
2019-05-30 21:00:00 20.8 9 Sudeste 21 Este 0 -- -- 54
2019-05-30 20:00:00 22.5 12 Este 21 Este 0 -- -- 45
2019-05-30 19:00:00 23.6 12 Este 24 Este 0 -- -- 43
2019-05-30 18:00:00 24.6 13 Este 25 Este 0 -- -- 41
2019-05-30 17:00:00 25.2 11 Este 26 Este 0 -- -- 38
2019-05-30 16:00:00 25.5 12 Este 29 Este 0 -- -- 37
2019-05-30 15:00:00 25.4 13 Este 24 Este 0 -- -- 36
2019-05-30 14:00:00 24.8 6 Este 20 Este 0 -- -- 40
2019-05-30 13:00:00 23.9 5 Este 16 Este 0 -- -- 47
2019-05-30 12:00:00 22.4 7 Este 16 Norte 0 -- -- 52
2019-05-30 11:00:00 21.6 3 Nordeste 10 Este 0 -- -- 56
2019-05-30 10:00:00 20.1 3 Sudoeste 6 Oeste 0 -- -- 62
2019-05-30 09:00:00 17.2 5 Oeste 8 Sudoeste 0 -- -- 65
2019-05-30 08:00:00 14.7 2 Sudoeste 4 Sudoeste 0 -- -- 76
2019-05-30 07:00:00 12.6 0 Calma 3 Noroeste 0 -- -- 82
2019-05-30 06:00:00 13.6 2 Sudeste 7 Sudoeste 0 -- -- 78
2019-05-30 05:00:00 13.4 3 Oeste 5 Oeste 0 -- -- 81
2019-05-30 04:00:00 14.2 0 Calma 7 Sudeste 0 -- -- 77
2019-05-30 03:00:00 15.5 3 Oeste 7 Sudoeste 0 -- -- 73
2019-05-30 02:00:00 16.6 3 Oeste 6 Oeste 0 -- -- 72
2019-05-30 01:00:00 15.7 2 Nordeste 6 Sudeste 0 -- -- 73
2019-05-30 00:00:00 16.4 0 Calma 4 Este 0 -- -- 69
2019-05-29 23:00:00 17.2 2 Este 9 Nordeste 0 -- -- 65
2019-05-29 22:00:00 18.2 6 Este 19 Nordeste 0 -- -- 58
2019-05-29 21:00:00 19.9 10 Este 24 Este 0 -- -- 41
2019-05-29 20:00:00 21.3 13 Nordeste 24 Nordeste 0 -- -- 45
2019-05-29 19:00:00 22.4 12 Este 27 Este 0 -- -- 41
2019-05-29 18:00:00 22.8 14 Este 33 Este 0 -- -- 40
2019-05-29 17:00:00 22.9 16 Este 33 Este 0 -- -- 42
2019-05-29 16:00:00 22.7 17 Nordeste 31 Este 0 -- -- 43
2019-05-29 15:00:00 23.1 17 Este 33 Nordeste 0 -- -- 44
2019-05-29 14:00:00 22.7 15 Este 30 Este 0 -- -- 46
2019-05-29 13:00:00 22.2 11 Este 24 Nordeste 0 -- -- 49
2019-05-29 12:00:00 21.9 5 Sur 17 Este 0 -- -- 50
2019-05-29 11:00:00 20.8 7 Este 20 Nordeste 0 -- -- 54
2019-05-29 10:00:00 20.4 10 Este 23 Sudeste 0 -- -- 56
2019-05-29 09:00:00 19.1 6 Este 12 Este 0 -- -- 67
2019-05-29 08:00:00 16.8 0 Calma 4 Este 0 -- -- 87
2019-05-29 07:00:00 14.2 2 Nordeste 4 Nordeste 0 -- -- 90
2019-05-29 06:00:00 14.9 0 Calma 5 Sudeste 0 -- -- 87
2019-05-29 05:00:00 15.5 2 Este 7 Sudoeste 0 -- -- 86
2019-05-29 04:00:00 16.8 2 Sudoeste 5 Sudoeste 0 -- -- 85
2019-05-29 03:00:00 17 3 Oeste 6 Sudoeste 0 -- -- 84
2019-05-29 02:00:00 17.4 3 Sudoeste 6 Este 0 -- -- 83
2019-05-29 01:00:00 17.8 0 Calma 9 Este 0 -- -- 81
2019-05-29 00:00:00 18.8 7 Nordeste 22 Nordeste 0 -- -- 78
2019-05-28 23:00:00 19.1 10 Este 19 Nordeste 0 -- -- 79
2019-05-28 22:00:00 19.7 10 Este 24 Este 0 -- -- 77
2019-05-28 21:00:00 20.7 14 Este 26 Este 0 -- -- 73
2019-05-28 20:00:00 22.4 14 Nordeste 27 Este 0 -- -- 64
2019-05-28 19:00:00 23.4 15 Nordeste 27 Este 0 -- -- 60
2019-05-28 18:00:00 24.3 15 Este 32 Nordeste 0 -- -- 58
2019-05-28 17:00:00 25.1 15 Este 27 Este 0 -- -- 55
2019-05-28 16:00:00 25.4 15 Nordeste 30 Este 0 -- -- 53
2019-05-28 15:00:00 25.8 16 Este 31 Este 0 -- -- 49
2019-05-28 14:00:00 25.9 13 Este 31 Sudeste 0 -- -- 50
2019-05-28 13:00:00 25.8 14 Este 26 Nordeste 0 -- -- 52
2019-05-28 12:00:00 25.4 12 Este 28 Este 0 -- -- 51
2019-05-28 11:00:00 24.1 10 Este 18 Nordeste 0 -- -- 58
2019-05-28 10:00:00 22.4 3 Este 9 Norte 0 -- -- 68
2019-05-28 09:00:00 20.7 2 Sur 7 Sudoeste 0 -- -- 78
2019-05-28 08:00:00 18.4 2 Oeste 5 Oeste 0 -- -- 87
2019-05-28 07:00:00 17.9 0 Calma 5 Nordeste 0 -- -- 87
2019-05-28 06:00:00 18.6 2 Sudeste 6 Este 0 -- -- 87
2019-05-28 05:00:00 18.7 2 Este 8 Este 0 -- -- 87
2019-05-28 04:00:00 19 5 Sudeste 14 Nordeste 0 -- -- 86
2019-05-28 03:00:00 19.3 7 Nordeste 18 Nordeste 0 -- -- 87
2019-05-28 02:00:00 19.4 10 Nordeste 23 Nordeste 0 -- -- 86
2019-05-28 01:00:00 19.6 10 Nordeste 23 Este 0 -- -- 84
2019-05-28 00:00:00 19.9 11 Nordeste 22 Este 0 -- -- 80
2019-05-27 23:00:00 20.6 10 Este 22 Nordeste 0 -- -- 75
2019-05-27 22:00:00 21.4 14 Este 24 Este 0 -- -- 69
2019-05-27 21:00:00 24.9 11 Este 17 Nordeste 0 -- -- 55
2019-05-27 20:00:00 28.2 4 Sudeste 19 Sudeste 0 -- -- 38
2019-05-27 19:00:00 28.7 9 Sudeste 22 Este 0 -- -- 36
2019-05-27 18:00:00 28.8 10 Sudeste 28 Este 0 -- -- 37
2019-05-27 17:00:00 30.2 13 Sudeste 31 Sudeste 0 -- -- 38
2019-05-27 16:00:00 31 5 Sur 22 Sudoeste 0 -- -- 29
2019-05-27 15:00:00 29.9 9 Oeste 21 Oeste 0 -- -- 33
2019-05-27 14:00:00 28.7 7 Sudoeste 16 Sudoeste 0 -- -- 37
2019-05-27 13:00:00 27.9 5 Sur 17 Sudoeste 0 -- -- 40
2019-05-27 12:00:00 25.4 4 Sudoeste 12 Sudoeste 0 -- -- 45
2019-05-27 11:00:00 23.5 5 Sudoeste 15 Sudoeste 0 -- -- 54
2019-05-27 10:00:00 20.8 6 Sudoeste 20 Sudoeste 0 -- -- 66
2019-05-27 09:00:00 18.3 10 Sudoeste 16 Sudoeste 0 -- -- 79
2019-05-27 08:00:00 16 3 Sudoeste 6 Oeste 0 -- -- 86
2019-05-27 07:00:00 14.8 0 Calma 9 Sudoeste 0 -- -- 87
2019-05-27 06:00:00 15.5 0 Calma 10 Sudoeste 0 -- -- 85
2019-05-27 05:00:00 15.9 4 Sudoeste 8 Oeste 0 -- -- 87
2019-05-27 04:00:00 16.5 3 Oeste 8 Oeste 0 -- -- 86
2019-05-27 03:00:00 17.1 3 Este 11 Nordeste 0 -- -- 86
2019-05-27 02:00:00 17.9 7 Este 18 Este 0 -- -- 85
2019-05-27 01:00:00 18.4 7 Este 15 Nordeste 0 -- -- 82
2019-05-27 00:00:00 18.9 7 Este 15 Este 0 -- -- 79
2019-05-26 23:00:00 20.2 5 Este 8 Nordeste 0 -- -- 55
2019-05-26 22:00:00 21.4 3 Nordeste 11 Sudeste 0 -- -- 49
2019-05-26 21:00:00 23.7 4 Sudeste 19 Sudeste 0 -- -- 43
2019-05-26 20:00:00 25.4 5 Sur 19 Sur 0 -- -- 39
2019-05-26 19:00:00 26.8 8 Sur 26 Sur 0 -- -- 37
2019-05-26 18:00:00 27.3 8 Sur 32 Sudeste 0 -- -- 36
2019-05-26 17:00:00 27.2 10 Sur 32 Sudeste 0 -- -- 36
2019-05-26 16:00:00 27.6 9 Sur 30 Sudeste 0 -- -- 35
2019-05-26 15:00:00 26.9 8 Sur 27 Sudeste 0 -- -- 36
2019-05-26 14:00:00 26.6 8 Sudeste 23 Sudeste 0 -- -- 37
2019-05-26 13:00:00 26.4 6 Sur 19 Sudoeste 0 -- -- 37
2019-05-26 12:00:00 24.5 3 Sudoeste 10 Este 0 -- -- 45
2019-05-26 11:00:00 21.5 5 Sudoeste 15 Oeste 0 -- -- 58
2019-05-26 10:00:00 19.6 8 Sudoeste 15 Sudoeste 0 -- -- 67
2019-05-26 09:00:00 16.8 6 Sudoeste 15 Sudoeste 0 -- -- 79
2019-05-26 08:00:00 14.4 3 Noroeste 7 Sudoeste 0 -- -- 86
2019-05-26 07:00:00 13.5 2 Sudoeste 6 Oeste 0 -- -- 88
2019-05-26 06:00:00 13.6 2 Sudoeste 6 Oeste 0 -- -- 87
2019-05-26 05:00:00 13.2 2 Oeste 4 Oeste 0 -- -- 87
2019-05-26 04:00:00 14.2 0 Calma 5 Sudoeste 0 -- -- 84
2019-05-26 03:00:00 15.4 3 Sudoeste 8 Sudoeste 0 -- -- 82
2019-05-26 02:00:00 15.7 3 Sur 4 Sudeste 0 -- -- 81
2019-05-26 01:00:00 16.6 0 Calma 3 Norte 0 -- -- 79
2019-05-26 00:00:00 16.5 0 Calma 3 Sudoeste 0 -- -- 80
2019-05-25 23:00:00 17.6 2 Este 13 Nordeste 0 -- -- 74
2019-05-25 22:00:00 18.5 8 Este 14 Este 0 -- -- 69
2019-05-25 21:00:00 20.4 5 Este 18 Este 0 -- -- 60
2019-05-25 20:00:00 22.5 11 Este 20 Sudeste 0 -- -- 52
2019-05-25 19:00:00 23.4 9 Este 22 Este 0 -- -- 48
2019-05-25 18:00:00 23.4 12 Este 23 Nordeste 0 -- -- 47
2019-05-25 17:00:00 22.6 11 Nordeste 27 Este 0 -- -- 47
2019-05-25 16:00:00 21.7 15 Este 30 Este 0 -- -- 51
2019-05-25 15:00:00 22.3 17 Este 30 Este 0 -- -- 49
2019-05-25 14:00:00 21.6 11 Nordeste 20 Este 0 -- -- 52
2019-05-25 13:00:00 21.3 4 Nordeste 10 Este 0 -- -- 53
2019-05-25 12:00:00 20.9 4 Este 12 Sudoeste 0 -- -- 53
2019-05-25 11:00:00 19.3 7 Sudoeste 17 Oeste 0 -- -- 57
2019-05-25 10:00:00 18.7 10 Oeste 19 Oeste 0 -- -- 60
2019-05-25 09:00:00 17.2 12 Sudoeste 18 Sudoeste 0 -- -- 65
2019-05-25 08:00:00 15.3 5 Oeste 17 Sudoeste 0 -- -- 70
2019-05-25 07:00:00 14.4 4 Sudoeste 14 Sudoeste 0 -- -- 73
2019-05-25 06:00:00 14.1 3 Sur 20 Sudoeste 0 -- -- 75
2019-05-25 05:00:00 14.4 12 Sudoeste 21 Sudoeste 0 -- -- 75
2019-05-25 04:00:00 14.4 8 Sudoeste 14 Sudoeste 0 -- -- 77
2019-05-25 03:00:00 14.8 5 Sudoeste 14 Sudoeste 0 -- -- 79
2019-05-25 02:00:00 15.2 5 Sudoeste 18 Sudoeste 0 -- -- 79
2019-05-25 01:00:00 15.2 7 Sudoeste 12 Sudoeste 0 -- -- 82
2019-05-25 00:00:00 15.2 3 Oeste 9 Sudoeste 0 -- -- 82